Anacortes, Washington
Current Conditions -  °F | °C
As of 12:15 PM on Monday 24 Nov 2014 (Local Time) from KBVS Reporting Station
Overcast Overcast  
Wind Chill: 52°   Ceiling: 2600
Heat Index: 52°   Visibility: 10mi
Dew Point: 37°   Wind: 12mph
Humidity: 58%   Direction: 130°SE
Pressure: 30.25"   Gusts: 20mph
Location:  48.51°N, 122.61°W
Report Text: KBVS 242015Z AUTO 13010G17KT 10SM OVC026 11/03 A3025 RMK A01 P000
Loading
Personal Weather Stations






























Interactive Weather Map New forecast layout! Learn more

10-Day Weather Forecast

Advertisements
Track Severe Weather on mobile